Impacts TAF Board
For situational awareness. Not to be used for flight planning purposes.
IDs:

KMSP - Minneapolis-St Paul, MN, US

Issued at 2333 UTC 11 Dec 2018
Updated at 0230 UTC 12 Dec 2018
Potential Impact None Slight Moderate High
Time<<12/15Z 12/16Z 12/17Z 12/18Z 12/19Z 12/20Z 12/21Z 12/22Z 12/23Z 13/00Z 13/01Z 13/02Z 13/03Z>>
Type PRVL PRVL PRVL PRVL PRVL PRVL PRVL PRVL PRVL PRVL PRVL PRVL PRVL
VIS 5 5 5 5 5 5 >6 >6 >6 >6 >6 >6 >6
CIG 15 15 15 15 15 15 15 15 15 15 15 15 15
Cover OVC OVC OVC OVC OVC OVC OVC OVC OVC OVC OVC OVC OVC
FltCat MVFR MVFR MVFR MVFR MVFR MVFR MVFR MVFR MVFR MVFR MVFR MVFR MVFR
WX BR BR BR BR BR BR -- -- -- -- -- -- --
WDir 350 350 350 350 350 350 VRB VRB VRB VRB VRB VRB VRB
WSpd 3 3 3 3 3 3 3 3 3 3 3 3 3
WGst -- -- -- -- -- -- -- -- -- -- -- -- --
Raw TAF
KMSP 112333Z 1200/1306 09003KT 6SM BR SCT150 OVC200
  FM120800 04004KT 6SM -SN BR OVC015
  FM121500 35003KT 5SM BR OVC015
  FM122100 VRB03KT P6SM BKN015 OVC020


METAR Board
Radar Display
Forecast Discussion
For situational awareness. Not to be used for flight planning purposes.